KMCF/MCF METAR and TAF weather

Enter ICAO airport designator
Station Type Date Time Source
KMCF METAR 2022/11/27 08:55 UTC NOAA

KMCF 270855Z AUTO 16006KT 10SM CLR 21/21 A2993 RMK AO2 SLP138 T02140205 58004 FZRANO $


Station Type Date Time Source
KMCF Decoded METAR 2022/11/27 08:55 UTC NOAA

Macdill Air Force Base, Fl., FL, United States (KMCF) 27-51N 082-30W 4M
Nov 27, 2022 - 03:55 AM EST / 2022.11.27 0855 UTC
Wind: from the SSE (160 degrees) at 7 MPH (6 KT):0
Visibility: 10 mile(s):0
Sky conditions: clear
Temperature: 70.5 F (21.4 C)
Dew Point: 68.9 F (20.5 C)
Relative Humidity: 94%
Pressure (altimeter): 29.93 in. Hg (1013 hPa)
Pressure tendency: 0.01 inches (0.4 hPa) lower than three hours ago
ob: KMCF 270855Z AUTO 16006KT 10SM CLR 21/21 A2993 RMK AO2 SLP138 T02140205 58004 FZRANO
cycle: 9

Station Type Date Time Source
KMCF TAF 2022/11/23 21:22 UTC NOAA

TAF
AMD KMCF 232100Z 2321/2423 03009KT 9999 BKN009 QNH3000INS
BECMG 2401/2402 06009KT 9999 OVC006 QNH2996INS
TEMPO 2411/2415 8000 -RA BR BKN009 TX24/2321Z TN18/2411Z LAST NO
AMD 2321 NEXT 2721

Example: see airport list